sensor_id;sensor_type;location;lat;lon;timestamp;P1;durP1;ratioP1;P2;durP2;ratioP2
5058;SDS011;2548;52.050;11.036;2023-02-15T00:01:58;62.13;;;30.05;;
5058;SDS011;2548;52.050;11.036;2023-02-15T00:04:25;58.25;;;29.50;;
5058;SDS011;2548;52.050;11.036;2023-02-15T00:07:12;56.58;;;27.90;;
5058;SDS011;2548;52.050;11.036;2023-02-15T00:09:41;51.58;;;27.23;;
5058;SDS011;2548;52.050;11.036;2023-02-15T00:12:10;45.58;;;25.60;;
5058;SDS011;2548;52.050;11.036;2023-02-15T00:14:37;55.80;;;27.98;;
5058;SDS011;2548;52.050;11.036;2023-02-15T00:17:05;50.25;;;26.83;;
5058;SDS011;2548;52.050;11.036;2023-02-15T00:19:32;52.35;;;28.45;;
5058;SDS011;2548;52.050;11.036;2023-02-15T00:22:00;62.50;;;29.38;;
5058;SDS011;2548;52.050;11.036;2023-02-15T00:24:28;50.25;;;28.65;;
5058;SDS011;2548;52.050;11.036;2023-02-15T00:26:55;50.63;;;26.33;;
5058;SDS011;2548;52.050;11.036;2023-02-15T00:29:24;54.67;;;28.95;;
5058;SDS011;2548;52.050;11.036;2023-02-15T00:31:51;53.22;;;26.58;;
5058;SDS011;2548;52.050;11.036;2023-02-15T00:34:20;58.97;;;27.88;;
5058;SDS011;2548;52.050;11.036;2023-02-15T00:36:49;58.92;;;30.10;;
5058;SDS011;2548;52.050;11.036;2023-02-15T00:39:17;49.05;;;25.73;;
5058;SDS011;2548;52.050;11.036;2023-02-15T00:41:45;63.88;;;28.17;;
5058;SDS011;2548;52.050;11.036;2023-02-15T00:44:14;60.05;;;30.05;;
5058;SDS011;2548;52.050;11.036;2023-02-15T00:46:43;48.85;;;25.33;;
5058;SDS011;2548;52.050;11.036;2023-02-15T00:49:10;40.63;;;22.98;;
5058;SDS011;2548;52.050;11.036;2023-02-15T00:51:38;45.78;;;23.05;;
5058;SDS011;2548;52.050;11.036;2023-02-15T00:54:06;46.05;;;23.75;;
5058;SDS011;2548;52.050;11.036;2023-02-15T00:56:33;47.38;;;26.45;;
5058;SDS011;2548;52.050;11.036;2023-02-15T00:59:01;63.47;;;25.63;;
5058;SDS011;2548;52.050;11.036;2023-02-15T01:01:29;55.83;;;25.05;;
5058;SDS011;2548;52.050;11.036;2023-02-15T01:03:57;41.85;;;23.90;;
5058;SDS011;2548;52.050;11.036;2023-02-15T01:06:28;46.53;;;24.63;;
5058;SDS011;2548;52.050;11.036;2023-02-15T01:08:56;54.95;;;19.70;;
5058;SDS011;2548;52.050;11.036;2023-02-15T01:11:23;25.75;;;16.77;;
5058;SDS011;2548;52.050;11.036;2023-02-15T01:13:51;26.73;;;17.48;;
5058;SDS011;2548;52.050;11.036;2023-02-15T01:16:20;25.08;;;16.35;;
5058;SDS011;2548;52.050;11.036;2023-02-15T01:18:49;38.15;;;17.10;;
5058;SDS011;2548;52.050;11.036;2023-02-15T01:21:18;34.35;;;20.17;;
5058;SDS011;2548;52.050;11.036;2023-02-15T01:23:47;35.03;;;21.35;;
5058;SDS011;2548;52.050;11.036;2023-02-15T01:26:16;42.40;;;24.38;;
5058;SDS011;2548;52.050;11.036;2023-02-15T01:28:44;35.78;;;20.95;;
5058;SDS011;2548;52.050;11.036;2023-02-15T01:31:12;37.60;;;21.40;;
5058;SDS011;2548;52.050;11.036;2023-02-15T01:33:41;32.70;;;18.95;;
5058;SDS011;2548;52.050;11.036;2023-02-15T01:36:09;30.05;;;19.65;;
5058;SDS011;2548;52.050;11.036;2023-02-15T01:38:39;27.63;;;18.30;;
5058;SDS011;2548;52.050;11.036;2023-02-15T01:41:07;44.97;;;17.55;;
5058;SDS011;2548;52.050;11.036;2023-02-15T01:43:49;29.42;;;17.90;;
5058;SDS011;2548;52.050;11.036;2023-02-15T01:46:20;27.23;;;16.85;;
5058;SDS011;2548;52.050;11.036;2023-02-15T01:48:51;26.05;;;17.10;;
5058;SDS011;2548;52.050;11.036;2023-02-15T01:51:24;30.13;;;17.67;;
5058;SDS011;2548;52.050;11.036;2023-02-15T01:53:59;23.92;;;16.98;;
5058;SDS011;2548;52.050;11.036;2023-02-15T01:56:35;28.45;;;17.50;;
5058;SDS011;2548;52.050;11.036;2023-02-15T01:59:05;30.77;;;16.13;;
5058;SDS011;2548;52.050;11.036;2023-02-15T02:01:36;27.33;;;16.08;;
5058;SDS011;2548;52.050;11.036;2023-02-15T02:04:05;33.67;;;17.95;;
5058;SDS011;2548;52.050;11.036;2023-02-15T02:06:39;24.90;;;16.15;;
5058;SDS011;2548;52.050;11.036;2023-02-15T02:09:08;26.23;;;16.17;;
5058;SDS011;2548;52.050;11.036;2023-02-15T02:11:36;47.10;;;17.75;;
5058;SDS011;2548;52.050;11.036;2023-02-15T02:14:05;23.33;;;15.52;;
5058;SDS011;2548;52.050;11.036;2023-02-15T02:16:36;21.25;;;14.43;;
5058;SDS011;2548;52.050;11.036;2023-02-15T02:22:20;26.77;;;16.42;;
5058;SDS011;2548;52.050;11.036;2023-02-15T02:25:12;26.15;;;15.77;;
5058;SDS011;2548;52.050;11.036;2023-02-15T02:28:06;27.40;;;16.92;;
5058;SDS011;2548;52.050;11.036;2023-02-15T02:31:03;27.48;;;16.77;;
5058;SDS011;2548;52.050;11.036;2023-02-15T02:33:55;43.15;;;16.23;;
5058;SDS011;2548;52.050;11.036;2023-02-15T02:36:30;29.70;;;16.98;;
5058;SDS011;2548;52.050;11.036;2023-02-15T02:41:51;37.55;;;20.27;;
5058;SDS011;2548;52.050;11.036;2023-02-15T02:44:26;31.88;;;19.17;;
5058;SDS011;2548;52.050;11.036;2023-02-15T02:47:01;73.00;;;20.13;;
5058;SDS011;2548;52.050;11.036;2023-02-15T02:49:35;33.63;;;19.60;;
5058;SDS011;2548;52.050;11.036;2023-02-15T02:52:04;36.72;;;21.08;;
5058;SDS011;2548;52.050;11.036;2023-02-15T02:54:33;68.30;;;21.63;;
5058;SDS011;2548;52.050;11.036;2023-02-15T02:57:04;42.45;;;21.15;;
5058;SDS011;2548;52.050;11.036;2023-02-15T02:59:36;49.70;;;17.42;;
5058;SDS011;2548;52.050;11.036;2023-02-15T03:02:09;27.73;;;18.23;;
5058;SDS011;2548;52.050;11.036;2023-02-15T03:04:42;36.63;;;21.23;;
5058;SDS011;2548;52.050;11.036;2023-02-15T03:07:13;38.05;;;19.45;;
5058;SDS011;2548;52.050;11.036;2023-02-15T03:09:48;34.92;;;18.83;;
5058;SDS011;2548;52.050;11.036;2023-02-15T03:12:19;35.25;;;19.15;;
5058;SDS011;2548;52.050;11.036;2023-02-15T03:14:49;35.40;;;21.92;;
5058;SDS011;2548;52.050;11.036;2023-02-15T03:17:20;29.35;;;18.92;;
5058;SDS011;2548;52.050;11.036;2023-02-15T03:19:54;48.67;;;20.38;;
5058;SDS011;2548;52.050;11.036;2023-02-15T03:22:26;27.15;;;16.67;;
5058;SDS011;2548;52.050;11.036;2023-02-15T03:24:59;82.28;;;22.70;;
5058;SDS011;2548;52.050;11.036;2023-02-15T03:27:33;34.88;;;20.40;;
5058;SDS011;2548;52.050;11.036;2023-02-15T03:30:05;34.35;;;20.50;;
5058;SDS011;2548;52.050;11.036;2023-02-15T03:32:35;81.47;;;22.25;;
5058;SDS011;2548;52.050;11.036;2023-02-15T03:35:06;33.38;;;19.42;;
5058;SDS011;2548;52.050;11.036;2023-02-15T03:37:35;52.85;;;20.83;;
5058;SDS011;2548;52.050;11.036;2023-02-15T03:40:07;30.85;;;19.10;;
5058;SDS011;2548;52.050;11.036;2023-02-15T03:42:58;37.25;;;19.90;;
5058;SDS011;2548;52.050;11.036;2023-02-15T03:45:31;48.67;;;24.00;;
5058;SDS011;2548;52.050;11.036;2023-02-15T03:48:00;33.97;;;21.02;;
5058;SDS011;2548;52.050;11.036;2023-02-15T03:50:31;54.10;;;20.55;;
5058;SDS011;2548;52.050;11.036;2023-02-15T03:53:19;47.63;;;22.77;;
5058;SDS011;2548;52.050;11.036;2023-02-15T03:55:49;46.92;;;23.50;;
5058;SDS011;2548;52.050;11.036;2023-02-15T03:58:20;42.85;;;22.27;;
5058;SDS011;2548;52.050;11.036;2023-02-15T04:01:09;81.80;;;25.65;;
5058;SDS011;2548;52.050;11.036;2023-02-15T04:03:59;66.22;;;22.88;;
5058;SDS011;2548;52.050;11.036;2023-02-15T04:06:31;44.50;;;23.52;;
5058;SDS011;2548;52.050;11.036;2023-02-15T04:08:58;38.97;;;24.38;;
5058;SDS011;2548;52.050;11.036;2023-02-15T04:11:43;169.40;;;26.52;;
5058;SDS011;2548;52.050;11.036;2023-02-15T04:14:11;63.75;;;25.75;;
5058;SDS011;2548;52.050;11.036;2023-02-15T04:16:52;43.80;;;24.95;;
5058;SDS011;2548;52.050;11.036;2023-02-15T04:19:19;41.38;;;26.38;;
5058;SDS011;2548;52.050;11.036;2023-02-15T04:22:06;77.07;;;24.83;;
5058;SDS011;2548;52.050;11.036;2023-02-15T04:24:50;89.97;;;24.35;;
5058;SDS011;2548;52.050;11.036;2023-02-15T04:27:36;34.28;;;20.98;;
5058;SDS011;2548;52.050;11.036;2023-02-15T04:30:05;38.28;;;24.65;;
5058;SDS011;2548;52.050;11.036;2023-02-15T04:32:33;59.13;;;24.35;;
5058;SDS011;2548;52.050;11.036;2023-02-15T04:35:01;48.33;;;24.65;;
5058;SDS011;2548;52.050;11.036;2023-02-15T04:37:30;77.32;;;27.13;;
5058;SDS011;2548;52.050;11.036;2023-02-15T04:39:58;48.55;;;23.45;;
5058;SDS011;2548;52.050;11.036;2023-02-15T04:42:25;35.22;;;22.95;;
5058;SDS011;2548;52.050;11.036;2023-02-15T04:44:54;38.58;;;23.15;;
5058;SDS011;2548;52.050;11.036;2023-02-15T04:47:21;42.38;;;26.30;;
5058;SDS011;2548;52.050;11.036;2023-02-15T04:49:49;38.67;;;23.10;;
5058;SDS011;2548;52.050;11.036;2023-02-15T04:52:16;72.05;;;26.85;;
5058;SDS011;2548;52.050;11.036;2023-02-15T04:54:45;56.63;;;24.58;;
5058;SDS011;2548;52.050;11.036;2023-02-15T04:57:13;68.93;;;24.90;;
5058;SDS011;2548;52.050;11.036;2023-02-15T04:59:40;34.60;;;23.05;;
5058;SDS011;2548;52.050;11.036;2023-02-15T05:02:08;74.93;;;24.65;;
5058;SDS011;2548;52.050;11.036;2023-02-15T05:04:35;36.40;;;22.80;;
5058;SDS011;2548;52.050;11.036;2023-02-15T05:07:03;46.90;;;24.30;;
5058;SDS011;2548;52.050;11.036;2023-02-15T05:09:30;39.13;;;24.27;;
5058;SDS011;2548;52.050;11.036;2023-02-15T05:11:59;81.88;;;25.67;;
5058;SDS011;2548;52.050;11.036;2023-02-15T05:14:26;42.55;;;25.05;;
5058;SDS011;2548;52.050;11.036;2023-02-15T05:16:54;38.53;;;24.17;;
5058;SDS011;2548;52.050;11.036;2023-02-15T05:19:22;62.20;;;24.60;;
5058;SDS011;2548;52.050;11.036;2023-02-15T05:21:50;31.35;;;21.25;;
5058;SDS011;2548;52.050;11.036;2023-02-15T05:24:18;36.65;;;23.40;;
5058;SDS011;2548;52.050;11.036;2023-02-15T05:27:04;45.50;;;26.20;;
5058;SDS011;2548;52.050;11.036;2023-02-15T05:29:49;45.33;;;26.92;;
5058;SDS011;2548;52.050;11.036;2023-02-15T05:32:16;44.28;;;26.85;;
5058;SDS011;2548;52.050;11.036;2023-02-15T05:34:44;47.55;;;26.30;;
5058;SDS011;2548;52.050;11.036;2023-02-15T05:37:11;57.97;;;26.45;;
5058;SDS011;2548;52.050;11.036;2023-02-15T05:39:39;41.72;;;26.08;;
5058;SDS011;2548;52.050;11.036;2023-02-15T05:42:08;44.67;;;27.70;;
5058;SDS011;2548;52.050;11.036;2023-02-15T05:44:35;54.45;;;25.95;;
5058;SDS011;2548;52.050;11.036;2023-02-15T05:47:03;43.03;;;23.95;;
5058;SDS011;2548;52.050;11.036;2023-02-15T05:49:32;53.67;;;28.48;;
5058;SDS011;2548;52.050;11.036;2023-02-15T05:52:00;86.55;;;26.85;;
5058;SDS011;2548;52.050;11.036;2023-02-15T05:54:28;39.40;;;24.58;;
5058;SDS011;2548;52.050;11.036;2023-02-15T05:56:55;53.15;;;27.75;;
5058;SDS011;2548;52.050;11.036;2023-02-15T05:59:24;64.63;;;26.73;;
5058;SDS011;2548;52.050;11.036;2023-02-15T06:01:51;65.85;;;25.92;;
5058;SDS011;2548;52.050;11.036;2023-02-15T06:04:19;49.83;;;26.10;;
5058;SDS011;2548;52.050;11.036;2023-02-15T06:06:46;54.95;;;25.60;;
5058;SDS011;2548;52.050;11.036;2023-02-15T06:09:14;38.00;;;22.00;;
5058;SDS011;2548;52.050;11.036;2023-02-15T06:11:43;85.72;;;28.67;;
5058;SDS011;2548;52.050;11.036;2023-02-15T06:14:11;65.20;;;26.70;;
5058;SDS011;2548;52.050;11.036;2023-02-15T06:16:40;46.17;;;24.95;;
5058;SDS011;2548;52.050;11.036;2023-02-15T06:19:07;41.53;;;24.27;;
5058;SDS011;2548;52.050;11.036;2023-02-15T06:21:35;52.83;;;26.38;;
5058;SDS011;2548;52.050;11.036;2023-02-15T06:24:02;44.55;;;27.25;;
5058;SDS011;2548;52.050;11.036;2023-02-15T06:26:30;46.25;;;27.80;;
5058;SDS011;2548;52.050;11.036;2023-02-15T06:28:58;56.63;;;27.20;;
5058;SDS011;2548;52.050;11.036;2023-02-15T06:31:25;149.88;;;25.27;;
5058;SDS011;2548;52.050;11.036;2023-02-15T06:33:54;38.72;;;24.65;;
5058;SDS011;2548;52.050;11.036;2023-02-15T06:36:26;52.28;;;22.58;;
5058;SDS011;2548;52.050;11.036;2023-02-15T06:38:54;34.55;;;23.10;;
5058;SDS011;2548;52.050;11.036;2023-02-15T06:41:22;43.03;;;26.63;;
5058;SDS011;2548;52.050;11.036;2023-02-15T06:43:50;46.42;;;30.48;;
5058;SDS011;2548;52.050;11.036;2023-02-15T06:46:17;44.92;;;29.05;;
5058;SDS011;2548;52.050;11.036;2023-02-15T06:48:45;33.17;;;22.33;;
5058;SDS011;2548;52.050;11.036;2023-02-15T06:51:14;55.20;;;22.75;;
5058;SDS011;2548;52.050;11.036;2023-02-15T06:53:41;35.78;;;21.90;;
5058;SDS011;2548;52.050;11.036;2023-02-15T06:56:09;32.47;;;22.10;;
5058;SDS011;2548;52.050;11.036;2023-02-15T06:58:37;56.47;;;23.10;;
5058;SDS011;2548;52.050;11.036;2023-02-15T07:01:06;34.78;;;22.27;;
5058;SDS011;2548;52.050;11.036;2023-02-15T07:03:35;44.97;;;22.92;;
5058;SDS011;2548;52.050;11.036;2023-02-15T07:06:03;35.40;;;22.45;;
5058;SDS011;2548;52.050;11.036;2023-02-15T07:08:35;36.40;;;23.20;;
5058;SDS011;2548;52.050;11.036;2023-02-15T07:11:03;35.17;;;21.98;;
5058;SDS011;2548;52.050;11.036;2023-02-15T07:13:50;31.88;;;21.38;;
5058;SDS011;2548;52.050;11.036;2023-02-15T07:16:18;41.80;;;19.08;;
5058;SDS011;2548;52.050;11.036;2023-02-15T07:18:46;51.63;;;23.35;;
5058;SDS011;2548;52.050;11.036;2023-02-15T07:21:13;112.03;;;25.58;;
5058;SDS011;2548;52.050;11.036;2023-02-15T07:23:42;34.80;;;21.98;;
5058;SDS011;2548;52.050;11.036;2023-02-15T07:26:10;34.90;;;21.63;;
5058;SDS011;2548;52.050;11.036;2023-02-15T07:28:38;51.70;;;20.15;;
5058;SDS011;2548;52.050;11.036;2023-02-15T07:31:05;41.00;;;20.70;;
5058;SDS011;2548;52.050;11.036;2023-02-15T07:33:33;63.63;;;22.20;;
5058;SDS011;2548;52.050;11.036;2023-02-15T07:36:04;28.35;;;19.70;;
5058;SDS011;2548;52.050;11.036;2023-02-15T07:38:33;63.85;;;21.33;;
5058;SDS011;2548;52.050;11.036;2023-02-15T07:41:04;28.85;;;18.75;;
5058;SDS011;2548;52.050;11.036;2023-02-15T07:43:34;136.48;;;24.52;;
5058;SDS011;2548;52.050;11.036;2023-02-15T07:46:03;31.63;;;20.77;;
5058;SDS011;2548;52.050;11.036;2023-02-15T07:48:33;57.70;;;23.00;;
5058;SDS011;2548;52.050;11.036;2023-02-15T07:51:00;32.45;;;21.05;;
5058;SDS011;2548;52.050;11.036;2023-02-15T07:53:29;40.63;;;22.98;;
5058;SDS011;2548;52.050;11.036;2023-02-15T07:55:58;32.63;;;20.85;;
5058;SDS011;2548;52.050;11.036;2023-02-15T07:58:27;32.55;;;21.15;;
5058;SDS011;2548;52.050;11.036;2023-02-15T08:01:08;76.15;;;20.63;;
5058;SDS011;2548;52.050;11.036;2023-02-15T08:03:36;37.83;;;22.98;;
5058;SDS011;2548;52.050;11.036;2023-02-15T08:06:03;72.88;;;20.60;;
5058;SDS011;2548;52.050;11.036;2023-02-15T08:08:33;51.42;;;22.33;;
5058;SDS011;2548;52.050;11.036;2023-02-15T08:11:01;60.55;;;22.80;;
5058;SDS011;2548;52.050;11.036;2023-02-15T08:13:49;33.85;;;19.45;;
5058;SDS011;2548;52.050;11.036;2023-02-15T08:16:22;37.10;;;22.75;;
5058;SDS011;2548;52.050;11.036;2023-02-15T08:18:50;33.33;;;22.25;;
5058;SDS011;2548;52.050;11.036;2023-02-15T08:21:18;37.75;;;22.70;;
5058;SDS011;2548;52.050;11.036;2023-02-15T08:23:46;36.25;;;22.95;;
5058;SDS011;2548;52.050;11.036;2023-02-15T08:26:14;41.65;;;20.85;;
5058;SDS011;2548;52.050;11.036;2023-02-15T08:28:42;36.50;;;20.83;;
5058;SDS011;2548;52.050;11.036;2023-02-15T08:31:11;39.33;;;22.10;;
5058;SDS011;2548;52.050;11.036;2023-02-15T08:33:40;43.70;;;23.90;;
5058;SDS011;2548;52.050;11.036;2023-02-15T08:36:10;60.88;;;24.05;;
5058;SDS011;2548;52.050;11.036;2023-02-15T08:38:38;41.70;;;22.90;;
5058;SDS011;2548;52.050;11.036;2023-02-15T08:41:12;35.30;;;21.92;;
5058;SDS011;2548;52.050;11.036;2023-02-15T08:43:41;35.63;;;22.80;;
5058;SDS011;2548;52.050;11.036;2023-02-15T08:46:11;34.47;;;21.17;;
5058;SDS011;2548;52.050;11.036;2023-02-15T08:48:41;35.28;;;23.08;;
5058;SDS011;2548;52.050;11.036;2023-02-15T08:51:09;52.20;;;23.92;;
5058;SDS011;2548;52.050;11.036;2023-02-15T08:53:38;67.55;;;25.52;;
5058;SDS011;2548;52.050;11.036;2023-02-15T08:56:06;39.75;;;20.77;;
5058;SDS011;2548;52.050;11.036;2023-02-15T08:58:34;33.20;;;22.80;;
5058;SDS011;2548;52.050;11.036;2023-02-15T09:01:07;35.22;;;22.13;;
5058;SDS011;2548;52.050;11.036;2023-02-15T09:03:37;38.38;;;22.00;;
5058;SDS011;2548;52.050;11.036;2023-02-15T09:06:05;34.63;;;22.63;;
5058;SDS011;2548;52.050;11.036;2023-02-15T09:08:33;34.30;;;22.40;;
5058;SDS011;2548;52.050;11.036;2023-02-15T09:11:07;43.70;;;20.30;;
5058;SDS011;2548;52.050;11.036;2023-02-15T09:13:37;28.83;;;20.48;;
5058;SDS011;2548;52.050;11.036;2023-02-15T09:16:06;29.65;;;18.55;;
5058;SDS011;2548;52.050;11.036;2023-02-15T09:18:38;30.65;;;20.35;;
5058;SDS011;2548;52.050;11.036;2023-02-15T09:21:06;26.23;;;18.75;;
5058;SDS011;2548;52.050;11.036;2023-02-15T09:23:35;51.33;;;21.58;;
5058;SDS011;2548;52.050;11.036;2023-02-15T09:26:04;27.50;;;18.67;;
5058;SDS011;2548;52.050;11.036;2023-02-15T09:28:32;31.00;;;20.33;;
5058;SDS011;2548;52.050;11.036;2023-02-15T09:31:07;47.80;;;20.77;;
5058;SDS011;2548;52.050;11.036;2023-02-15T09:33:38;45.67;;;19.98;;
5058;SDS011;2548;52.050;11.036;2023-02-15T09:36:12;26.15;;;19.45;;
5058;SDS011;2548;52.050;11.036;2023-02-15T09:38:41;72.15;;;20.73;;
5058;SDS011;2548;52.050;11.036;2023-02-15T09:41:13;28.15;;;19.45;;
5058;SDS011;2548;52.050;11.036;2023-02-15T09:44:03;88.75;;;22.70;;
5058;SDS011;2548;52.050;11.036;2023-02-15T09:46:42;29.88;;;20.08;;
5058;SDS011;2548;52.050;11.036;2023-02-15T09:49:21;26.67;;;18.05;;
5058;SDS011;2548;52.050;11.036;2023-02-15T09:52:05;37.05;;;21.52;;
5058;SDS011;2548;52.050;11.036;2023-02-15T09:54:46;29.88;;;20.92;;
5058;SDS011;2548;52.050;11.036;2023-02-15T09:57:24;42.97;;;19.20;;
5058;SDS011;2548;52.050;11.036;2023-02-15T10:00:01;143.98;;;21.63;;
5058;SDS011;2548;52.050;11.036;2023-02-15T10:02:47;29.58;;;20.52;;
5058;SDS011;2548;52.050;11.036;2023-02-15T10:05:36;30.58;;;19.95;;
5058;SDS011;2548;52.050;11.036;2023-02-15T10:08:14;33.70;;;19.50;;
5058;SDS011;2548;52.050;11.036;2023-02-15T10:10:57;26.15;;;19.70;;
5058;SDS011;2548;52.050;11.036;2023-02-15T10:13:49;46.88;;;21.15;;
5058;SDS011;2548;52.050;11.036;2023-02-15T10:16:23;30.88;;;20.30;;
5058;SDS011;2548;52.050;11.036;2023-02-15T10:18:55;106.35;;;24.02;;
5058;SDS011;2548;52.050;11.036;2023-02-15T10:21:37;70.03;;;23.45;;
5058;SDS011;2548;52.050;11.036;2023-02-15T10:24:23;54.85;;;20.60;;
5058;SDS011;2548;52.050;11.036;2023-02-15T10:27:07;48.95;;;24.05;;
5058;SDS011;2548;52.050;11.036;2023-02-15T10:29:39;33.65;;;20.17;;
5058;SDS011;2548;52.050;11.036;2023-02-15T10:32:16;50.17;;;21.42;;
5058;SDS011;2548;52.050;11.036;2023-02-15T10:34:50;43.92;;;21.75;;
5058;SDS011;2548;52.050;11.036;2023-02-15T10:37:25;39.65;;;21.45;;
5058;SDS011;2548;52.050;11.036;2023-02-15T10:40:14;48.15;;;20.20;;
5058;SDS011;2548;52.050;11.036;2023-02-15T10:42:54;51.13;;;22.00;;
5058;SDS011;2548;52.050;11.036;2023-02-15T10:45:40;34.78;;;19.48;;
5058;SDS011;2548;52.050;11.036;2023-02-15T10:48:21;90.85;;;22.35;;
5058;SDS011;2548;52.050;11.036;2023-02-15T10:50:57;65.00;;;20.48;;
5058;SDS011;2548;52.050;11.036;2023-02-15T10:53:34;66.53;;;21.33;;
5058;SDS011;2548;52.050;11.036;2023-02-15T10:56:33;142.27;;;22.40;;
5058;SDS011;2548;52.050;11.036;2023-02-15T10:59:15;28.25;;;19.50;;
5058;SDS011;2548;52.050;11.036;2023-02-15T11:02:04;32.08;;;21.50;;
5058;SDS011;2548;52.050;11.036;2023-02-15T11:04:43;72.10;;;39.92;;
5058;SDS011;2548;52.050;11.036;2023-02-15T11:07:17;46.72;;;32.15;;
5058;SDS011;2548;52.050;11.036;2023-02-15T11:09:50;77.10;;;33.45;;
5058;SDS011;2548;52.050;11.036;2023-02-15T11:12:21;182.07;;;28.83;;
5058;SDS011;2548;52.050;11.036;2023-02-15T11:14:52;43.28;;;28.70;;
5058;SDS011;2548;52.050;11.036;2023-02-15T11:17:25;35.05;;;25.77;;
5058;SDS011;2548;52.050;11.036;2023-02-15T11:20:02;138.40;;;31.33;;
5058;SDS011;2548;52.050;11.036;2023-02-15T11:22:38;55.80;;;30.27;;
5058;SDS011;2548;52.050;11.036;2023-02-15T11:25:14;40.03;;;26.95;;
5058;SDS011;2548;52.050;11.036;2023-02-15T11:27:45;35.03;;;25.45;;
5058;SDS011;2548;52.050;11.036;2023-02-15T11:30:17;72.10;;;22.35;;
5058;SDS011;2548;52.050;11.036;2023-02-15T11:32:47;33.28;;;22.17;;
5058;SDS011;2548;52.050;11.036;2023-02-15T11:35:21;35.47;;;20.98;;
5058;SDS011;2548;52.050;11.036;2023-02-15T11:37:54;26.67;;;21.42;;
5058;SDS011;2548;52.050;11.036;2023-02-15T11:40:30;39.67;;;21.67;;
5058;SDS011;2548;52.050;11.036;2023-02-15T11:43:02;65.20;;;21.02;;
5058;SDS011;2548;52.050;11.036;2023-02-15T11:45:32;30.40;;;21.67;;
5058;SDS011;2548;52.050;11.036;2023-02-15T11:48:01;28.40;;;22.02;;
5058;SDS011;2548;52.050;11.036;2023-02-15T11:50:36;32.03;;;20.38;;
5058;SDS011;2548;52.050;11.036;2023-02-15T11:53:04;32.63;;;20.08;;
5058;SDS011;2548;52.050;11.036;2023-02-15T11:55:39;87.53;;;19.70;;
5058;SDS011;2548;52.050;11.036;2023-02-15T11:58:10;43.13;;;20.48;;
5058;SDS011;2548;52.050;11.036;2023-02-15T12:00:47;26.00;;;21.23;;
5058;SDS011;2548;52.050;11.036;2023-02-15T12:03:19;36.53;;;21.63;;
5058;SDS011;2548;52.050;11.036;2023-02-15T12:05:49;31.10;;;21.88;;
5058;SDS011;2548;52.050;11.036;2023-02-15T12:08:20;30.17;;;22.25;;
5058;SDS011;2548;52.050;11.036;2023-02-15T12:10:55;26.08;;;20.42;;
5058;SDS011;2548;52.050;11.036;2023-02-15T12:13:25;32.08;;;22.17;;
5058;SDS011;2548;52.050;11.036;2023-02-15T12:15:53;35.05;;;22.10;;
5058;SDS011;2548;52.050;11.036;2023-02-15T12:18:32;29.80;;;22.10;;
5058;SDS011;2548;52.050;11.036;2023-02-15T12:21:03;35.25;;;24.67;;
5058;SDS011;2548;52.050;11.036;2023-02-15T12:23:34;31.48;;;23.20;;
5058;SDS011;2548;52.050;11.036;2023-02-15T12:26:11;33.00;;;21.58;;
5058;SDS011;2548;52.050;11.036;2023-02-15T12:28:40;47.85;;;23.27;;
5058;SDS011;2548;52.050;11.036;2023-02-15T12:31:17;53.80;;;22.88;;
5058;SDS011;2548;52.050;11.036;2023-02-15T12:33:47;28.52;;;22.35;;
5058;SDS011;2548;52.050;11.036;2023-02-15T12:36:20;36.42;;;26.50;;
5058;SDS011;2548;52.050;11.036;2023-02-15T12:39:03;30.83;;;22.50;;
5058;SDS011;2548;52.050;11.036;2023-02-15T12:41:45;32.97;;;21.67;;
5058;SDS011;2548;52.050;11.036;2023-02-15T12:44:23;34.60;;;23.55;;
5058;SDS011;2548;52.050;11.036;2023-02-15T12:46:57;39.53;;;23.17;;
5058;SDS011;2548;52.050;11.036;2023-02-15T12:49:27;32.55;;;23.38;;
5058;SDS011;2548;52.050;11.036;2023-02-15T12:51:56;31.80;;;23.48;;
5058;SDS011;2548;52.050;11.036;2023-02-15T12:54:32;38.03;;;27.02;;
5058;SDS011;2548;52.050;11.036;2023-02-15T12:57:20;42.83;;;24.23;;
5058;SDS011;2548;52.050;11.036;2023-02-15T12:59:51;36.58;;;23.90;;
5058;SDS011;2548;52.050;11.036;2023-02-15T13:02:22;36.95;;;24.27;;
5058;SDS011;2548;52.050;11.036;2023-02-15T13:04:52;36.25;;;22.42;;
5058;SDS011;2548;52.050;11.036;2023-02-15T13:07:20;25.48;;;19.70;;
5058;SDS011;2548;52.050;11.036;2023-02-15T13:09:48;29.85;;;21.52;;
5058;SDS011;2548;52.050;11.036;2023-02-15T13:12:20;27.85;;;21.10;;
5058;SDS011;2548;52.050;11.036;2023-02-15T13:14:50;29.65;;;21.88;;
5058;SDS011;2548;52.050;11.036;2023-02-15T13:17:21;27.95;;;22.05;;
5058;SDS011;2548;52.050;11.036;2023-02-15T13:19:56;30.42;;;22.42;;
5058;SDS011;2548;52.050;11.036;2023-02-15T13:22:28;30.48;;;21.23;;
5058;SDS011;2548;52.050;11.036;2023-02-15T13:25:03;34.00;;;23.95;;
5058;SDS011;2548;52.050;11.036;2023-02-15T13:27:39;34.67;;;24.05;;
5058;SDS011;2548;52.050;11.036;2023-02-15T13:32:59;34.33;;;24.25;;
5058;SDS011;2548;52.050;11.036;2023-02-15T13:35:31;32.85;;;25.25;;
5058;SDS011;2548;52.050;11.036;2023-02-15T13:38:09;31.45;;;22.17;;
5058;SDS011;2548;52.050;11.036;2023-02-15T13:40:55;28.65;;;22.05;;
5058;SDS011;2548;52.050;11.036;2023-02-15T13:43:30;31.00;;;23.27;;
5058;SDS011;2548;52.050;11.036;2023-02-15T13:46:14;27.35;;;20.35;;
5058;SDS011;2548;52.050;11.036;2023-02-15T13:48:51;26.70;;;21.17;;
5058;SDS011;2548;52.050;11.036;2023-02-15T13:51:34;26.58;;;20.17;;
5058;SDS011;2548;52.050;11.036;2023-02-15T13:54:12;27.80;;;20.65;;
5058;SDS011;2548;52.050;11.036;2023-02-15T13:56:58;33.55;;;21.33;;
5058;SDS011;2548;52.050;11.036;2023-02-15T13:59:45;27.58;;;20.73;;
5058;SDS011;2548;52.050;11.036;2023-02-15T14:05:22;23.92;;;18.55;;
5058;SDS011;2548;52.050;11.036;2023-02-15T14:07:58;27.88;;;21.15;;
5058;SDS011;2548;52.050;11.036;2023-02-15T14:10:42;23.73;;;19.63;;
5058;SDS011;2548;52.050;11.036;2023-02-15T14:13:26;26.10;;;18.88;;
5058;SDS011;2548;52.050;11.036;2023-02-15T14:16:15;21.27;;;16.63;;
5058;SDS011;2548;52.050;11.036;2023-02-15T14:18:51;26.92;;;19.30;;
5058;SDS011;2548;52.050;11.036;2023-02-15T14:21:25;25.17;;;18.40;;
5058;SDS011;2548;52.050;11.036;2023-02-15T14:24:00;21.38;;;17.00;;
5058;SDS011;2548;52.050;11.036;2023-02-15T14:26:40;21.92;;;17.25;;
5058;SDS011;2548;52.050;11.036;2023-02-15T14:29:16;21.60;;;17.05;;
5058;SDS011;2548;52.050;11.036;2023-02-15T14:31:52;22.20;;;17.33;;
5058;SDS011;2548;52.050;11.036;2023-02-15T14:34:23;20.45;;;16.88;;
5058;SDS011;2548;52.050;11.036;2023-02-15T14:36:54;20.40;;;16.20;;
5058;SDS011;2548;52.050;11.036;2023-02-15T14:39:25;18.67;;;15.88;;
5058;SDS011;2548;52.050;11.036;2023-02-15T14:42:21;19.50;;;16.55;;
5058;SDS011;2548;52.050;11.036;2023-02-15T14:44:57;18.15;;;15.50;;
5058;SDS011;2548;52.050;11.036;2023-02-15T14:47:31;21.70;;;17.67;;
5058;SDS011;2548;52.050;11.036;2023-02-15T14:59:00;19.45;;;16.58;;
5058;SDS011;2548;52.050;11.036;2023-02-15T15:01:42;19.77;;;16.95;;
5058;SDS011;2548;52.050;11.036;2023-02-15T15:04:25;21.58;;;17.48;;
5058;SDS011;2548;52.050;11.036;2023-02-15T15:06:58;21.60;;;17.48;;
5058;SDS011;2548;52.050;11.036;2023-02-15T15:09:32;26.83;;;20.02;;
5058;SDS011;2548;52.050;11.036;2023-02-15T15:15:11;21.85;;;18.58;;
5058;SDS011;2548;52.050;11.036;2023-02-15T15:17:52;20.83;;;17.73;;
5058;SDS011;2548;52.050;11.036;2023-02-15T15:26:26;20.88;;;17.48;;
5058;SDS011;2548;52.050;11.036;2023-02-15T15:28:56;22.33;;;17.48;;
5058;SDS011;2548;52.050;11.036;2023-02-15T15:31:27;22.58;;;16.67;;
5058;SDS011;2548;52.050;11.036;2023-02-15T15:37:38;23.38;;;18.08;;
5058;SDS011;2548;52.050;11.036;2023-02-15T15:46:57;20.83;;;17.23;;